Time;durP1;ratioP1;P1;durP2;ratioP2;P2;SDS_P1;SDS_P2;PMS_P1;PMS_P2;Temp;Humidity;BMP_temperature;BMP_pressure;BME280_temperature;BME280_humidity;BME280_pressure;Samples;Min_cycle;Max_cycle;Signal;HPM_P1;HPM_P2
2022/03/26 00:00:33;;;;;;;32.67;15.05;;;4.40;99.90;;;;;;5032650;28;20480;-70
2022/03/26 00:02:58;;;;;;;39.03;16.52;;;4.30;99.90;;;;;;5048304;28;20037;-70
2022/03/26 00:05:24;;;;;;;37.63;17.92;;;4.30;99.90;;;;;;5066543;28;20052;-70
2022/03/26 00:07:50;;;;;;;36.72;17.02;;;4.20;99.90;;;;;;5057556;28;20095;-70
2022/03/26 00:10:16;;;;;;;37.92;15.80;;;4.20;99.90;;;;;;5048327;28;20041;-70
2022/03/26 00:12:42;;;;;;;44.90;17.92;;;4.20;99.90;;;;;;5048165;28;20495;-70
2022/03/26 00:15:09;;;;;;;44.25;18.05;;;4.10;99.90;;;;;;5051368;28;20116;-70
2022/03/26 00:17:35;;;;;;;41.92;18.05;;;4.00;99.90;;;;;;5040537;28;20049;-70
2022/03/26 00:20:01;;;;;;;39.58;17.40;;;4.00;99.90;;;;;;5031316;28;20039;-70
2022/03/26 00:22:26;;;;;;;41.13;18.40;;;4.00;99.90;;;;;;5034662;28;20056;-70
2022/03/26 00:24:52;;;;;;;37.97;16.23;;;3.90;99.90;;;;;;5059084;28;20044;-70
2022/03/26 00:27:18;;;;;;;39.05;17.98;;;4.00;99.90;;;;;;5059778;28;20076;-70
2022/03/26 00:29:44;;;;;;;35.25;16.73;;;3.90;99.90;;;;;;5049156;28;20041;-70
2022/03/26 00:32:10;;;;;;;35.45;15.57;;;3.90;99.90;;;;;;5048936;28;20376;-70
2022/03/26 00:34:36;;;;;;;36.25;16.30;;;3.80;99.90;;;;;;5049428;28;20045;-70
2022/03/26 00:37:02;;;;;;;39.15;17.33;;;3.90;99.90;;;;;;5049328;28;20094;-70
2022/03/26 00:39:28;;;;;;;45.17;19.08;;;3.80;99.90;;;;;;5032221;28;20036;-70
2022/03/26 00:41:53;;;;;;;31.23;14.77;;;3.80;99.90;;;;;;5033800;28;20071;-70
2022/03/26 00:44:20;;;;;;;35.95;16.60;;;3.80;99.90;;;;;;5047851;28;20275;-70
2022/03/26 00:46:46;;;;;;;37.42;17.45;;;3.80;99.90;;;;;;5048119;28;20051;-70
2022/03/26 00:49:13;;;;;;;37.50;15.93;;;3.80;99.90;;;;;;5048516;28;20041;-70
2022/03/26 00:51:39;;;;;;;26.77;12.90;;;3.80;99.90;;;;;;5032436;28;20400;-70
2022/03/26 00:54:04;;;;;;;30.40;13.73;;;3.70;99.90;;;;;;5049309;28;20048;-70
2022/03/26 00:56:30;;;;;;;25.23;11.60;;;3.70;99.90;;;;;;5048964;28;20045;-70
2022/03/26 00:58:56;;;;;;;30.98;14.07;;;3.60;99.90;;;;;;5043079;28;20447;-70
2022/03/26 01:01:22;;;;;;;38.20;14.80;;;3.60;99.90;;;;;;5047973;28;20055;-70
2022/03/26 01:03:47;;;;;;;34.45;14.40;;;3.50;99.90;;;;;;5032315;28;20045;-70
2022/03/26 01:06:14;;;;;;;42.40;19.02;;;3.40;99.90;;;;;;5048757;28;20051;-70
2022/03/26 01:08:39;;;;;;;54.53;21.75;;;3.40;99.90;;;;;;5048755;28;20041;-70
2022/03/26 01:11:05;;;;;;;44.10;19.13;;;3.40;99.90;;;;;;5049308;28;20036;-70
2022/03/26 01:13:32;;;;;;;41.10;16.80;;;3.40;99.90;;;;;;5049196;28;20076;-70
2022/03/26 01:15:57;;;;;;;39.00;16.63;;;3.40;99.90;;;;;;5030430;28;20033;-70
2022/03/26 01:18:24;;;;;;;39.08;16.85;;;3.40;99.90;;;;;;5064303;28;20039;-70
2022/03/26 01:20:49;;;;;;;37.42;17.45;;;3.40;99.90;;;;;;5034569;28;20071;-70
2022/03/26 01:23:19;;;;;;;41.13;16.90;;;3.30;99.90;;;;;;5048816;28;20040;-70
2022/03/26 01:25:44;;;;;;;45.08;17.73;;;3.30;99.90;;;;;;5031543;28;20090;-70
2022/03/26 01:28:10;;;;;;;40.58;18.13;;;3.30;99.90;;;;;;5048375;28;20484;-70
2022/03/26 01:30:35;;;;;;;34.40;15.57;;;3.30;99.90;;;;;;5047018;28;20079;-70
2022/03/26 01:33:01;;;;;;;45.45;18.60;;;3.20;99.90;;;;;;5052886;28;20448;-70
2022/03/26 01:35:27;;;;;;;43.25;17.48;;;3.20;99.90;;;;;;5052800;28;20042;-70
2022/03/26 01:37:52;;;;;;;38.65;17.17;;;3.20;99.90;;;;;;5036119;28;20118;-70
2022/03/26 01:40:18;;;;;;;46.67;19.40;;;3.10;99.90;;;;;;5061269;28;20037;-70
2022/03/26 01:42:43;;;;;;;53.20;20.52;;;3.10;99.90;;;;;;5039771;28;20052;-70
2022/03/26 01:45:13;;;;;;;58.13;23.00;;;3.10;99.90;;;;;;5051455;28;20032;-70
2022/03/26 01:47:39;;;;;;;41.65;17.73;;;3.10;99.90;;;;;;5037236;28;20041;-70
2022/03/26 01:50:05;;;;;;;58.65;23.75;;;3.10;99.90;;;;;;5052321;28;20063;-69
2022/03/26 01:52:31;;;;;;;51.00;21.45;;;3.10;99.90;;;;;;5052484;28;20123;-70
2022/03/26 01:54:58;;;;;;;57.10;22.95;;;3.10;99.90;;;;;;5052203;28;20465;-70
2022/03/26 01:57:24;;;;;;;56.35;23.85;;;3.10;99.90;;;;;;5052144;28;20084;-70
2022/03/26 01:59:50;;;;;;;69.15;25.92;;;3.00;99.90;;;;;;5039579;28;20076;-70
2022/03/26 02:02:16;;;;;;;58.13;23.23;;;3.00;99.90;;;;;;5068800;28;20044;-70
2022/03/26 02:04:41;;;;;;;52.95;22.33;;;3.00;99.90;;;;;;5051978;28;20090;-70
2022/03/26 02:07:09;;;;;;;59.47;21.73;;;3.00;99.90;;;;;;5034303;28;20044;-70
2022/03/26 02:09:37;;;;;;;51.00;21.83;;;2.90;99.90;;;;;;5054275;28;20029;-70
2022/03/26 02:12:22;;;;;;;55.25;24.15;;;2.90;99.90;;;;;;5045875;28;20030;-70
2022/03/26 02:14:48;;;;;;;56.92;23.92;;;2.90;99.90;;;;;;5042143;28;20447;-70
2022/03/26 02:17:16;;;;;;;57.17;23.90;;;2.80;99.90;;;;;;5050968;28;20048;-70
2022/03/26 02:19:48;;;;;;;54.53;22.50;;;2.80;99.90;;;;;;5045799;28;20049;-70
2022/03/26 02:22:13;;;;;;;56.22;21.92;;;2.80;99.90;;;;;;5051621;28;20123;-70
2022/03/26 02:24:39;;;;;;;51.35;22.05;;;2.80;99.90;;;;;;5051766;28;20140;-70
2022/03/26 02:27:08;;;;;;;53.63;22.67;;;2.80;99.90;;;;;;5035195;28;20045;-70
2022/03/26 02:29:34;;;;;;;59.50;25.05;;;2.80;99.90;;;;;;5060772;28;20124;-70
2022/03/26 02:32:00;;;;;;;61.92;23.60;;;2.80;99.90;;;;;;5048633;28;20448;-70
2022/03/26 02:34:26;;;;;;;56.78;23.90;;;2.80;99.90;;;;;;5045556;28;20070;-70
2022/03/26 02:36:55;;;;;;;54.53;21.52;;;2.80;99.90;;;;;;5062526;28;20089;-70
2022/03/26 02:39:21;;;;;;;55.90;23.35;;;2.80;99.90;;;;;;5055255;28;20040;-70
2022/03/26 02:41:47;;;;;;;51.15;18.85;;;2.70;99.90;;;;;;5051310;28;20049;-70
2022/03/26 02:44:13;;;;;;;46.03;18.65;;;2.70;99.90;;;;;;5050389;28;20434;-70
2022/03/26 02:46:38;;;;;;;41.00;17.10;;;2.70;99.90;;;;;;5051108;28;20098;-70
2022/03/26 02:49:04;;;;;;;36.13;15.60;;;2.60;99.90;;;;;;5034698;28;20040;-70
2022/03/26 02:51:30;;;;;;;42.03;17.67;;;2.50;99.90;;;;;;5051687;28;20048;-70
2022/03/26 02:53:55;;;;;;;47.67;18.20;;;2.50;99.90;;;;;;5047156;28;20422;-70
2022/03/26 02:56:21;;;;;;;55.97;22.00;;;2.40;99.90;;;;;;5033492;28;20045;-70
2022/03/26 02:58:48;;;;;;;46.67;19.50;;;2.30;99.90;;;;;;5049940;28;20507;-70
2022/03/26 03:01:14;;;;;;;58.33;22.55;;;2.30;99.90;;;;;;5050088;28;20041;-70
2022/03/26 03:03:40;;;;;;;49.55;20.67;;;2.30;99.90;;;;;;5043183;28;20036;-70
2022/03/26 03:06:06;;;;;;;61.30;23.52;;;2.20;99.90;;;;;;5054244;28;20106;-70
2022/03/26 03:08:33;;;;;;;56.70;23.40;;;2.20;99.90;;;;;;5068747;28;20040;-70
2022/03/26 03:10:59;;;;;;;63.72;23.65;;;2.20;99.90;;;;;;5034889;28;20076;-70
2022/03/26 03:13:24;;;;;;;61.63;23.85;;;2.20;99.90;;;;;;5031365;28;20065;-70
2022/03/26 03:15:50;;;;;;;65.63;25.10;;;2.30;99.90;;;;;;5038076;28;20037;-70
2022/03/26 03:18:17;;;;;;;70.50;26.13;;;2.30;99.90;;;;;;5052105;28;20044;-70
2022/03/26 03:20:43;;;;;;;61.65;25.65;;;2.30;99.90;;;;;;5054115;28;20045;-70
2022/03/26 03:23:08;;;;;;;71.35;26.92;;;2.30;99.90;;;;;;5034066;28;20045;-70
2022/03/26 03:25:34;;;;;;;63.63;24.88;;;2.30;99.90;;;;;;5049022;28;20036;-70
2022/03/26 03:27:59;;;;;;;62.70;24.63;;;2.30;99.90;;;;;;5069378;28;20135;-70
2022/03/26 03:30:26;;;;;;;65.22;25.52;;;2.30;99.90;;;;;;5055701;28;20029;-70
2022/03/26 03:32:53;;;;;;;63.72;26.40;;;2.20;99.90;;;;;;5043650;28;20056;-71
2022/03/26 03:35:18;;;;;;;69.18;26.90;;;2.20;99.90;;;;;;5062191;28;20365;-70
2022/03/26 03:37:44;;;;;;;69.15;26.13;;;2.20;99.90;;;;;;5048344;28;20052;-70
2022/03/26 03:40:10;;;;;;;64.68;25.35;;;2.20;99.90;;;;;;5050271;28;20084;-70
2022/03/26 03:42:36;;;;;;;67.07;27.13;;;2.10;99.90;;;;;;5048791;28;20124;-70
2022/03/26 03:45:02;;;;;;;62.80;24.95;;;2.10;99.90;;;;;;5050276;28;20119;-70
2022/03/26 03:47:28;;;;;;;67.47;24.80;;;2.10;99.90;;;;;;5050316;28;20058;-70
2022/03/26 03:49:53;;;;;;;63.72;24.75;;;2.00;99.90;;;;;;5049312;28;20388;-70
2022/03/26 03:52:19;;;;;;;74.93;25.85;;;2.00;99.90;;;;;;5044335;28;20037;-70
2022/03/26 03:54:44;;;;;;;69.85;25.48;;;2.00;99.90;;;;;;5064787;28;20040;-70
2022/03/26 03:57:10;;;;;;;72.32;27.48;;;2.00;99.90;;;;;;5064164;28;20048;-70
2022/03/26 03:59:40;;;;;;;77.50;29.85;;;2.00;99.90;;;;;;5033452;28;20476;-70
2022/03/26 04:02:08;;;;;;;67.72;26.63;;;1.90;99.90;;;;;;5053536;28;20124;-70
2022/03/26 04:04:33;;;;;;;69.97;27.45;;;2.00;99.90;;;;;;5049808;28;20041;-70
2022/03/26 04:06:59;;;;;;;83.97;31.85;;;2.00;99.90;;;;;;5052681;28;20044;-70
2022/03/26 04:09:24;;;;;;;84.53;31.42;;;2.00;99.90;;;;;;5031234;28;20037;-70
2022/03/26 04:11:50;;;;;;;72.18;27.88;;;2.00;99.90;;;;;;5040652;28;20074;-70
2022/03/26 04:14:15;;;;;;;67.15;25.20;;;2.00;99.90;;;;;;5050046;28;20037;-70
2022/03/26 04:16:41;;;;;;;66.93;25.52;;;2.00;99.90;;;;;;5051984;28;20048;-70
2022/03/26 04:19:06;;;;;;;77.85;29.52;;;2.00;99.90;;;;;;5036858;28;20086;-70
2022/03/26 04:21:32;;;;;;;75.75;28.40;;;2.00;99.90;;;;;;5056715;28;20044;-70
2022/03/26 04:23:57;;;;;;;76.50;28.73;;;2.00;99.90;;;;;;5039688;28;20136;-70
2022/03/26 04:26:23;;;;;;;61.72;24.23;;;2.00;99.90;;;;;;5054641;28;20080;-70
2022/03/26 04:28:48;;;;;;;57.47;23.25;;;2.00;99.90;;;;;;5065614;28;20041;-70
2022/03/26 04:31:14;;;;;;;54.60;22.02;;;2.00;99.90;;;;;;5051273;28;20399;-70
2022/03/26 04:33:39;;;;;;;62.20;24.27;;;1.90;99.90;;;;;;5049429;28;20098;-70
2022/03/26 04:36:05;;;;;;;63.28;24.27;;;2.00;99.90;;;;;;5048386;28;20029;-70
2022/03/26 04:38:30;;;;;;;58.50;22.50;;;2.00;99.90;;;;;;5055271;28;20051;-70
2022/03/26 04:40:56;;;;;;;61.15;24.80;;;2.00;99.90;;;;;;5044480;28;20314;-70
2022/03/26 04:43:23;;;;;;;62.05;25.13;;;2.00;99.90;;;;;;5047318;28;20484;-70
2022/03/26 04:45:49;;;;;;;65.97;25.17;;;2.00;99.90;;;;;;5035768;28;20044;-70
2022/03/26 04:48:15;;;;;;;60.40;24.58;;;1.90;99.90;;;;;;5035008;28;20108;-70
2022/03/26 04:50:40;;;;;;;61.75;24.23;;;1.90;99.90;;;;;;5045097;28;20510;-70
2022/03/26 04:53:06;;;;;;;59.20;25.10;;;1.90;99.90;;;;;;5057610;28;20400;-70
2022/03/26 04:55:32;;;;;;;52.25;20.80;;;1.90;99.90;;;;;;5045791;28;20037;-70
2022/03/26 04:57:58;;;;;;;50.67;19.65;;;1.90;99.90;;;;;;5056967;28;20168;-70
2022/03/26 05:00:23;;;;;;;56.33;22.40;;;1.90;99.90;;;;;;5048058;28;20535;-70
2022/03/26 05:02:49;;;;;;;46.40;19.63;;;1.70;99.90;;;;;;5049089;28;20079;-70
2022/03/26 05:05:15;;;;;;;55.20;21.58;;;1.60;99.90;;;;;;5042202;28;20045;-70
2022/03/26 05:07:47;;;;;;;51.10;21.55;;;1.50;99.90;;;;;;5054005;28;20384;-70
2022/03/26 05:10:21;;;;;;;47.25;19.40;;;1.40;99.90;;;;;;5055726;28;20036;-70
2022/03/26 05:12:48;;;;;;;47.85;19.17;;;1.40;99.90;;;;;;5060965;28;20407;-70
2022/03/26 05:15:15;;;;;;;51.45;19.90;;;1.40;99.90;;;;;;5052534;28;20221;-70
2022/03/26 05:17:41;;;;;;;48.75;20.42;;;1.30;99.90;;;;;;5047576;28;20052;-70
2022/03/26 05:20:12;;;;;;;60.60;23.88;;;1.40;99.90;;;;;;5034619;28;20041;-70
2022/03/26 05:22:39;;;;;;;58.85;21.83;;;1.40;99.90;;;;;;5052594;28;20040;-70
2022/03/26 05:25:05;;;;;;;51.40;21.05;;;1.40;99.90;;;;;;5051906;28;20485;-70
2022/03/26 05:27:31;;;;;;;49.75;20.67;;;1.50;99.90;;;;;;5052001;28;20036;-70
2022/03/26 05:29:56;;;;;;;47.05;18.35;;;1.50;99.90;;;;;;5051859;28;20376;-70
2022/03/26 05:32:22;;;;;;;54.78;20.92;;;1.50;99.90;;;;;;5052642;28;20048;-70
2022/03/26 05:34:47;;;;;;;50.85;20.13;;;1.50;99.90;;;;;;5050795;28;20110;-70
2022/03/26 05:37:13;;;;;;;66.57;24.88;;;1.50;99.90;;;;;;5036479;28;20547;-70
2022/03/26 05:39:39;;;;;;;57.60;22.55;;;1.50;99.90;;;;;;5035559;28;20048;-70
2022/03/26 05:42:05;;;;;;;41.15;17.67;;;1.60;99.90;;;;;;5052036;28;20035;-70
2022/03/26 05:44:31;;;;;;;53.13;21.48;;;1.50;99.90;;;;;;5051788;28;20052;-70
2022/03/26 05:46:57;;;;;;;57.10;22.27;;;1.60;99.90;;;;;;5052243;28;20056;-71
2022/03/26 05:49:23;;;;;;;58.15;22.48;;;1.60;99.90;;;;;;5051280;28;20037;-70
2022/03/26 05:51:49;;;;;;;62.95;25.27;;;1.60;99.90;;;;;;5067067;28;20506;-70
2022/03/26 05:54:15;;;;;;;65.80;25.58;;;1.60;99.90;;;;;;5052328;28;20108;-70
2022/03/26 05:56:40;;;;;;;48.88;20.85;;;1.70;99.90;;;;;;5051413;28;20125;-70
2022/03/26 05:59:10;;;;;;;49.55;19.35;;;1.70;99.90;;;;;;5042685;28;20045;-70
2022/03/26 06:01:36;;;;;;;52.83;19.15;;;1.70;99.90;;;;;;5051414;28;20067;-70
2022/03/26 06:04:02;;;;;;;47.42;19.42;;;1.60;99.90;;;;;;5052289;28;20029;-70
2022/03/26 06:06:28;;;;;;;55.10;21.92;;;1.50;99.90;;;;;;5052331;28;20505;-70
2022/03/26 06:08:54;;;;;;;50.67;20.08;;;1.40;99.90;;;;;;5051768;28;20033;-70
2022/03/26 06:11:20;;;;;;;59.50;24.33;;;1.50;99.90;;;;;;5036772;28;20515;-70
2022/03/26 06:13:45;;;;;;;51.75;20.83;;;1.60;99.90;;;;;;5048138;28;20051;-70
2022/03/26 06:16:11;;;;;;;71.13;28.45;;;1.60;99.90;;;;;;5051281;28;20048;-70
2022/03/26 06:18:36;;;;;;;61.30;23.30;;;1.60;99.90;;;;;;5032827;28;20048;-70
2022/03/26 06:21:05;;;;;;;62.97;22.90;;;1.70;99.90;;;;;;5051761;28;20040;-70
2022/03/26 06:23:33;;;;;;;49.92;19.60;;;1.80;99.90;;;;;;5052033;28;20049;-70
2022/03/26 06:25:59;;;;;;;54.63;21.25;;;1.90;99.90;;;;;;5047336;28;20040;-71
2022/03/26 06:28:25;;;;;;;54.15;20.08;;;2.00;99.90;;;;;;5049291;28;20041;-70
2022/03/26 06:30:51;;;;;;;76.30;27.13;;;2.00;99.90;;;;;;5053928;28;20134;-71
2022/03/26 06:33:18;;;;;;;72.60;25.55;;;2.10;99.90;;;;;;5041615;28;20041;-71
2022/03/26 06:35:44;;;;;;;64.38;24.70;;;2.20;99.90;;;;;;5057711;28;20037;-70
2022/03/26 06:38:10;;;;;;;70.88;25.73;;;2.20;99.90;;;;;;5046482;28;20048;-71
2022/03/26 06:40:37;;;;;;;82.45;30.52;;;2.30;99.90;;;;;;5033357;28;20032;-71
2022/03/26 06:43:03;;;;;;;69.63;27.88;;;2.40;99.90;;;;;;5055624;28;20048;-71
2022/03/26 06:45:28;;;;;;;112.30;39.78;;;2.50;99.90;;;;;;5041144;28;20037;-70
2022/03/26 06:47:54;;;;;;;114.25;37.67;;;2.60;99.90;;;;;;5065014;28;20048;-70
2022/03/26 06:50:20;;;;;;;104.70;37.47;;;2.70;99.90;;;;;;5051722;28;20037;-71
2022/03/26 06:52:45;;;;;;;104.45;37.15;;;2.90;99.90;;;;;;5062891;28;20086;-71
2022/03/26 06:55:11;;;;;;;135.15;44.25;;;3.10;99.90;;;;;;5060973;28;20039;-71
2022/03/26 06:57:37;;;;;;;140.70;46.05;;;3.20;99.90;;;;;;5050049;28;20306;-71
2022/03/26 07:00:05;;;;;;;168.60;53.03;;;3.40;99.90;;;;;;5050028;28;20528;-71
2022/03/26 07:02:30;;;;;;;143.32;48.40;;;3.60;99.90;;;;;;5050908;28;20041;-71
2022/03/26 07:04:56;;;;;;;155.32;51.15;;;3.80;99.90;;;;;;5051223;28;20094;-71
2022/03/26 07:07:21;;;;;;;155.60;52.08;;;4.00;99.90;;;;;;5050635;28;20549;-71
2022/03/26 07:09:47;;;;;;;155.95;52.47;;;4.20;99.90;;;;;;5031635;28;20033;-71
2022/03/26 07:12:13;;;;;;;160.75;52.60;;;4.40;99.90;;;;;;5054915;28;20470;-71
2022/03/26 07:14:38;;;;;;;173.52;59.22;;;4.70;99.90;;;;;;5055044;28;20094;-71
2022/03/26 07:17:04;;;;;;;175.98;56.17;;;4.80;99.90;;;;;;5051349;28;20102;-71
2022/03/26 07:19:30;;;;;;;185.20;58.83;;;5.10;99.90;;;;;;5048093;28;20136;-71
2022/03/26 07:21:56;;;;;;;181.02;59.28;;;5.30;99.90;;;;;;5055202;28;20505;-71
2022/03/26 07:24:21;;;;;;;181.38;55.05;;;5.50;99.90;;;;;;5069942;28;20115;-71
2022/03/26 07:26:47;;;;;;;173.43;57.00;;;5.60;99.90;;;;;;5070772;28;20087;-71
2022/03/26 07:29:12;;;;;;;190.63;59.38;;;5.90;99.90;;;;;;5052066;28;20048;-71
2022/03/26 07:31:38;;;;;;;192.23;61.40;;;6.00;99.90;;;;;;5034969;28;20041;-71
2022/03/26 07:34:03;;;;;;;173.40;55.30;;;6.20;99.90;;;;;;5048994;28;20051;-71
2022/03/26 07:36:29;;;;;;;184.70;60.15;;;6.40;99.90;;;;;;5070685;28;20079;-71
2022/03/26 07:38:55;;;;;;;176.40;59.63;;;6.60;99.90;;;;;;5037039;28;20628;-71
2022/03/26 07:41:21;;;;;;;174.55;60.17;;;6.80;99.90;;;;;;5032228;28;20056;-72
2022/03/26 07:43:47;;;;;;;171.63;56.03;;;7.00;99.90;;;;;;5040270;28;20037;-71
2022/03/26 07:46:14;;;;;;;178.80;59.70;;;7.20;99.90;;;;;;5053784;28;20123;-71
2022/03/26 07:48:39;;;;;;;179.13;54.88;;;7.40;99.90;;;;;;5049689;28;20140;-71
2022/03/26 07:51:05;;;;;;;179.70;55.67;;;7.60;99.90;;;;;;5050114;28;20119;-71
2022/03/26 07:53:31;;;;;;;195.02;59.67;;;7.80;99.90;;;;;;5048804;28;20072;-72
2022/03/26 07:55:57;;;;;;;177.27;52.22;;;8.00;99.90;;;;;;5049830;28;20043;-71
2022/03/26 07:58:22;;;;;;;150.45;45.53;;;8.30;99.90;;;;;;5049003;28;20345;-72
2022/03/26 08:00:49;;;;;;;152.82;48.47;;;8.60;99.90;;;;;;5041341;28;20032;-71
2022/03/26 08:03:14;;;;;;;148.70;49.67;;;8.80;99.90;;;;;;5040323;28;20041;-71
2022/03/26 08:05:40;;;;;;;141.68;41.30;;;9.10;99.90;;;;;;5048108;28;20086;-72
2022/03/26 08:08:06;;;;;;;121.65;35.80;;;9.40;99.90;;;;;;5055364;28;20091;-71
2022/03/26 08:10:32;;;;;;;149.00;46.45;;;9.60;99.90;;;;;;5045966;28;20037;-72
2022/03/26 08:12:57;;;;;;;126.30;36.72;;;9.80;99.90;;;;;;5033182;28;20058;-73
2022/03/26 08:15:23;;;;;;;140.82;44.10;;;10.00;99.90;;;;;;5059419;28;20047;-74
2022/03/26 08:17:48;;;;;;;155.05;47.30;;;10.20;99.90;;;;;;5066104;28;20043;-71
2022/03/26 08:20:14;;;;;;;145.45;42.17;;;10.40;99.90;;;;;;5060124;28;20105;-71
2022/03/26 08:22:41;;;;;;;139.80;39.53;;;10.50;99.90;;;;;;5058864;28;20446;-72
2022/03/26 08:25:11;;;;;;;135.32;39.25;;;10.70;99.90;;;;;;5033928;28;20090;-74
2022/03/26 08:27:38;;;;;;;120.00;37.83;;;10.90;99.90;;;;;;5056490;28;20038;-68
2022/03/26 08:30:07;;;;;;;136.77;40.15;;;11.00;99.90;;;;;;5052101;28;20048;-70
2022/03/26 08:32:33;;;;;;;145.57;48.33;;;11.20;99.90;;;;;;5047554;28;20101;-70
2022/03/26 08:34:58;;;;;;;143.25;46.88;;;11.30;99.90;;;;;;5044724;28;20531;-72
2022/03/26 08:37:24;;;;;;;136.68;40.20;;;11.40;99.90;;;;;;5047666;28;20045;-71
2022/03/26 08:39:49;;;;;;;125.15;37.95;;;11.50;99.90;;;;;;5047304;28;20419;-76
2022/03/26 08:42:15;;;;;;;139.95;44.20;;;11.70;99.90;;;;;;5047573;28;20434;-72
2022/03/26 08:44:41;;;;;;;141.77;45.53;;;11.80;99.90;;;;;;5045432;28;20051;-71
2022/03/26 08:47:06;;;;;;;142.90;40.47;;;11.80;99.90;;;;;;5047712;28;20400;-72
2022/03/26 08:49:33;;;;;;;131.43;32.58;;;11.90;99.90;;;;;;5047346;28;20082;-72
2022/03/26 08:51:59;;;;;;;98.88;28.55;;;12.10;99.90;;;;;;5048580;28;20493;-75
2022/03/26 08:54:25;;;;;;;129.95;39.53;;;12.20;99.90;;;;;;5026720;28;20384;-75
2022/03/26 08:56:50;;;;;;;127.40;39.67;;;12.30;99.90;;;;;;5062672;28;20033;-71
2022/03/26 08:59:16;;;;;;;132.98;39.75;;;12.40;99.90;;;;;;5031782;28;20037;-76
2022/03/26 09:01:42;;;;;;;126.68;37.30;;;12.50;99.90;;;;;;5048274;28;20041;-74
2022/03/26 09:04:11;;;;;;;126.05;36.45;;;12.50;99.90;;;;;;5031827;28;20037;-73
2022/03/26 09:06:36;;;;;;;134.98;38.47;;;12.60;99.90;;;;;;5025322;28;20503;-74
2022/03/26 09:09:04;;;;;;;127.47;38.13;;;12.70;99.90;;;;;;5046690;28;20122;-71
2022/03/26 09:11:30;;;;;;;137.18;38.85;;;12.90;99.90;;;;;;5047209;28;20052;-70
2022/03/26 09:13:56;;;;;;;125.55;38.92;;;13.00;99.90;;;;;;5046740;28;20033;-71
2022/03/26 09:16:22;;;;;;;124.70;38.85;;;13.10;97.10;;;;;;5045464;28;20043;-71
2022/03/26 09:18:47;;;;;;;128.30;37.88;;;13.10;96.20;;;;;;5047374;28;20090;-71
2022/03/26 09:21:13;;;;;;;110.38;31.38;;;13.30;96.60;;;;;;5048343;28;20106;-74
2022/03/26 09:23:38;;;;;;;110.60;33.92;;;13.40;92.30;;;;;;5048232;28;20447;-75
2022/03/26 09:26:04;;;;;;;127.47;37.20;;;13.40;94.00;;;;;;5048574;28;20294;-74
2022/03/26 09:28:30;;;;;;;105.38;30.38;;;13.60;93.00;;;;;;5048460;28;20055;-72
2022/03/26 09:30:55;;;;;;;138.95;42.22;;;13.60;94.50;;;;;;5031252;28;20040;-71
2022/03/26 09:33:21;;;;;;;123.80;35.60;;;13.70;91.70;;;;;;5048415;28;20480;-70
2022/03/26 09:35:47;;;;;;;115.53;34.10;;;13.70;90.40;;;;;;5046393;28;20048;-71
2022/03/26 09:38:12;;;;;;;118.85;36.67;;;13.70;96.50;;;;;;5048034;28;20344;-75
2022/03/26 09:40:41;;;;;;;110.35;30.60;;;13.80;94.80;;;;;;5046888;28;20503;-71
2022/03/26 09:43:08;;;;;;;119.55;35.63;;;14.00;95.80;;;;;;5046955;28;20043;-71
2022/03/26 09:45:33;;;;;;;114.80;34.85;;;14.00;90.30;;;;;;5058052;28;20041;-71
2022/03/26 09:47:59;;;;;;;116.43;37.35;;;14.00;87.90;;;;;;5046755;28;20561;-70
2022/03/26 09:50:24;;;;;;;127.53;38.55;;;14.00;95.10;;;;;;5047606;28;20052;-70
2022/03/26 09:52:50;;;;;;;102.53;32.58;;;14.20;96.40;;;;;;5047501;28;20040;-73
2022/03/26 09:55:19;;;;;;;97.95;29.13;;;14.20;92.60;;;;;;5051001;28;20064;-72
2022/03/26 09:57:47;;;;;;;100.75;35.00;;;14.40;87.30;;;;;;5050430;28;20063;-70
2022/03/26 10:00:13;;;;;;;97.43;30.52;;;14.40;88.50;;;;;;5051066;28;20045;-70
2022/03/26 10:02:39;;;;;;;109.00;30.50;;;14.50;92.00;;;;;;5052024;28;20479;-71
2022/03/26 10:05:08;;;;;;;84.05;23.67;;;14.50;93.30;;;;;;5034588;28;20048;-70
2022/03/26 10:07:33;;;;;;;95.35;31.70;;;14.60;94.70;;;;;;5051636;28;20132;-70
2022/03/26 10:10:02;;;;;;;93.22;30.98;;;14.70;90.70;;;;;;5050221;28;20024;-70
2022/03/26 10:12:28;;;;;;;91.20;29.95;;;14.90;90.00;;;;;;5048231;28;20689;-71
2022/03/26 10:15:04;;;;;;;80.15;29.05;;;15.00;93.10;;;;;;5068798;28;20090;-70
2022/03/26 10:17:37;;;;;;;85.40;26.30;;;15.10;90.60;;;;;;5051969;28;20400;-74
2022/03/26 10:20:07;;;;;;;60.38;19.80;;;15.20;83.80;;;;;;5050924;28;20055;-74
2022/03/26 10:22:35;;;;;;;41.00;15.07;;;15.30;88.60;;;;;;5050939;28;20166;-72
2022/03/26 10:25:12;;;;;;;65.22;23.58;;;15.30;86.10;;;;;;5049830;28;20423;-72
2022/03/26 10:27:43;;;;;;;68.60;23.98;;;15.40;92.70;;;;;;5051626;28;20045;-72
2022/03/26 10:30:12;;;;;;;78.95;28.88;;;15.40;86.40;;;;;;5066278;28;20037;-71
2022/03/26 10:32:39;;;;;;;74.50;29.85;;;15.40;95.20;;;;;;5050120;28;20128;-73
2022/03/26 10:35:06;;;;;;;77.40;27.42;;;15.50;93.90;;;;;;5050374;28;20108;-72
2022/03/26 10:37:51;;;;;;;77.32;31.65;;;15.60;95.80;;;;;;5067949;28;20041;-69
2022/03/26 10:40:17;;;;;;;74.45;28.90;;;15.60;96.50;;;;;;5050728;28;20048;-72
2022/03/26 10:42:42;;;;;;;67.70;25.65;;;15.70;99.50;;;;;;5050679;28;20041;-70
2022/03/26 10:45:18;;;;;;;76.18;33.20;;;15.80;98.10;;;;;;5051512;28;20047;-70
2022/03/26 10:47:44;;;;;;;82.82;30.65;;;15.70;97.20;;;;;;5063013;28;20068;-70
2022/03/26 10:50:13;;;;;;;72.20;28.70;;;15.80;96.40;;;;;;5052219;28;20369;-71
2022/03/26 10:52:39;;;;;;;74.93;28.70;;;15.80;98.10;;;;;;5067371;28;20036;-69
2022/03/26 10:55:16;;;;;;;70.28;25.92;;;15.80;99.90;;;;;;5048034;28;20084;-71
2022/03/26 10:57:44;;;;;;;72.35;28.40;;;15.90;99.90;;;;;;5061853;28;20503;-69
2022/03/26 11:00:11;;;;;;;69.70;29.58;;;16.00;99.40;;;;;;5033886;28;20124;-71
2022/03/26 11:02:37;;;;;;;66.35;27.50;;;16.00;98.10;;;;;;5034696;28;20455;-75
2022/03/26 11:05:02;;;;;;;65.22;25.80;;;16.10;98.90;;;;;;5049216;28;20076;-69
2022/03/26 11:07:29;;;;;;;58.47;21.15;;;16.10;96.00;;;;;;5050044;28;20037;-70
2022/03/26 11:09:56;;;;;;;52.85;18.45;;;16.10;95.40;;;;;;5048120;28;20164;-70
2022/03/26 11:12:22;;;;;;;66.85;27.38;;;16.20;99.70;;;;;;5054778;28;20424;-70
2022/03/26 11:14:52;;;;;;;62.25;24.17;;;16.20;99.80;;;;;;5055244;28;20033;-74
2022/03/26 11:17:23;;;;;;;62.65;24.52;;;16.20;99.90;;;;;;5046129;28;20048;-71
2022/03/26 11:20:12;;;;;;;54.45;22.52;;;16.30;98.70;;;;;;5047863;28;20503;-70
2022/03/26 11:23:02;;;;;;;63.28;26.15;;;16.30;97.80;;;;;;5048434;28;20480;-70
2022/03/26 11:25:42;;;;;;;68.43;29.33;;;16.30;99.30;;;;;;5052281;28;20049;-69
2022/03/26 11:28:08;;;;;;;71.10;29.35;;;16.40;99.90;;;;;;5067599;28;20385;-70
2022/03/26 11:30:54;;;;;;;67.47;25.75;;;16.50;98.70;;;;;;5051653;28;20318;-70
2022/03/26 11:33:20;;;;;;;71.95;28.48;;;16.60;99.90;;;;;;5033798;28;20048;-70
2022/03/26 11:35:51;;;;;;;79.20;31.27;;;16.70;95.90;;;;;;5050974;28;20033;-69
2022/03/26 11:38:17;;;;;;;69.57;28.38;;;16.60;97.20;;;;;;5040056;28;20044;-69
2022/03/26 11:41:05;;;;;;;59.78;23.42;;;16.70;96.30;;;;;;5050975;28;20085;-71
2022/03/26 11:43:43;;;;;;;67.85;26.05;;;16.70;97.30;;;;;;5050605;28;20051;-70
2022/03/26 11:52:20;;;;;;;60.33;24.40;;;16.70;96.70;;;;;;5047030;28;20107;-71
2022/03/26 11:54:46;;;;;;;51.42;23.65;;;16.70;93.50;;;;;;5045177;28;20569;-69
2022/03/26 11:57:23;;;;;;;50.78;21.40;;;16.60;94.40;;;;;;5045406;28;20491;-69
2022/03/26 11:59:50;;;;;;;50.60;23.08;;;16.80;94.90;;;;;;5055561;28;20399;-70
2022/03/26 12:02:24;;;;;;;48.33;21.00;;;16.80;95.70;;;;;;5071100;28;20107;-70
2022/03/26 12:04:55;;;;;;;39.63;14.05;;;16.90;91.80;;;;;;5070075;28;20036;-71
2022/03/26 12:07:23;;;;;;;46.97;21.30;;;16.90;88.20;;;;;;5048282;28;20087;-71
2022/03/26 12:10:11;;;;;;;38.25;15.80;;;16.80;89.70;;;;;;5049069;28;20033;-70
2022/03/26 12:12:52;;;;;;;39.92;18.10;;;16.80;92.90;;;;;;5050002;28;20403;-70
2022/03/26 12:15:18;;;;;;;46.63;21.13;;;16.80;88.70;;;;;;5050050;28;20037;-69
2022/03/26 12:18:08;;;;;;;43.75;19.85;;;16.80;87.90;;;;;;5050500;28;20299;-69
2022/03/26 12:20:36;;;;;;;38.53;17.67;;;16.90;92.30;;;;;;5049595;28;20103;-70
2022/03/26 12:23:23;;;;;;;43.80;19.92;;;17.00;89.30;;;;;;5047933;28;20037;-69
2022/03/26 12:25:51;;;;;;;40.42;17.15;;;17.10;91.70;;;;;;5047443;28;20052;-70
2022/03/26 12:28:24;;;;;;;43.83;17.92;;;17.20;91.30;;;;;;5032934;28;20036;-70
2022/03/26 12:30:55;;;;;;;42.70;19.08;;;17.10;90.00;;;;;;5049939;28;20128;-71
2022/03/26 12:33:22;;;;;;;34.35;13.05;;;17.10;94.20;;;;;;5048600;28;20041;-68
2022/03/26 12:35:50;;;;;;;38.25;15.60;;;17.20;83.30;;;;;;5050844;28;20036;-68